sensor_id;sensor_type;location;lat;lon;timestamp;P1;durP1;ratioP1;P2;durP2;ratioP2
8482;SDS011;4278;42.668;23.312;2022-08-02T00:00:27;2.20;;;1.90;;
8482;SDS011;4278;42.668;23.312;2022-08-02T00:02:54;3.13;;;1.80;;
8482;SDS011;4278;42.668;23.312;2022-08-02T00:05:20;3.47;;;2.08;;
8482;SDS011;4278;42.668;23.312;2022-08-02T00:07:47;2.92;;;2.10;;
8482;SDS011;4278;42.668;23.312;2022-08-02T00:10:14;2.30;;;2.08;;
8482;SDS011;4278;42.668;23.312;2022-08-02T00:12:40;2.50;;;1.98;;
8482;SDS011;4278;42.668;23.312;2022-08-02T00:15:08;3.45;;;1.90;;
8482;SDS011;4278;42.668;23.312;2022-08-02T00:17:36;2.47;;;2.22;;
8482;SDS011;4278;42.668;23.312;2022-08-02T00:20:03;2.13;;;1.92;;
8482;SDS011;4278;42.668;23.312;2022-08-02T00:22:30;2.88;;;1.95;;
8482;SDS011;4278;42.668;23.312;2022-08-02T00:24:56;4.93;;;2.20;;
8482;SDS011;4278;42.668;23.312;2022-08-02T00:27:23;2.40;;;1.77;;
8482;SDS011;4278;42.668;23.312;2022-08-02T00:29:50;2.45;;;1.85;;
8482;SDS011;4278;42.668;23.312;2022-08-02T00:32:16;4.70;;;2.20;;
8482;SDS011;4278;42.668;23.312;2022-08-02T00:34:44;2.13;;;1.92;;
8482;SDS011;4278;42.668;23.312;2022-08-02T00:37:11;4.82;;;2.05;;
8482;SDS011;4278;42.668;23.312;2022-08-02T00:39:37;4.22;;;2.25;;
8482;SDS011;4278;42.668;23.312;2022-08-02T00:42:04;2.40;;;2.20;;
8482;SDS011;4278;42.668;23.312;2022-08-02T00:44:30;2.22;;;1.90;;
8482;SDS011;4278;42.668;23.312;2022-08-02T00:46:57;2.55;;;1.77;;
8482;SDS011;4278;42.668;23.312;2022-08-02T00:49:24;3.45;;;1.85;;
8482;SDS011;4278;42.668;23.312;2022-08-02T00:51:51;2.92;;;2.30;;
8482;SDS011;4278;42.668;23.312;2022-08-02T00:54:18;4.28;;;2.28;;
8482;SDS011;4278;42.668;23.312;2022-08-02T00:56:45;2.70;;;2.20;;
8482;SDS011;4278;42.668;23.312;2022-08-02T00:59:11;3.97;;;2.55;;
8482;SDS011;4278;42.668;23.312;2022-08-02T01:01:38;2.65;;;2.35;;
8482;SDS011;4278;42.668;23.312;2022-08-02T01:04:05;3.05;;;2.10;;
8482;SDS011;4278;42.668;23.312;2022-08-02T01:06:32;3.33;;;2.03;;
8482;SDS011;4278;42.668;23.312;2022-08-02T01:09:01;2.58;;;2.13;;
8482;SDS011;4278;42.668;23.312;2022-08-02T01:11:28;3.47;;;2.10;;
8482;SDS011;4278;42.668;23.312;2022-08-02T01:13:55;2.20;;;2.00;;
8482;SDS011;4278;42.668;23.312;2022-08-02T01:16:22;2.60;;;2.40;;
8482;SDS011;4278;42.668;23.312;2022-08-02T01:18:51;2.58;;;1.98;;
8482;SDS011;4278;42.668;23.312;2022-08-02T01:21:32;3.67;;;2.50;;
8482;SDS011;4278;42.668;23.312;2022-08-02T01:24:07;3.53;;;2.63;;
8482;SDS011;4278;42.668;23.312;2022-08-02T01:26:41;7.07;;;3.03;;
8482;SDS011;4278;42.668;23.312;2022-08-02T01:29:11;3.00;;;2.45;;
8482;SDS011;4278;42.668;23.312;2022-08-02T01:31:40;2.88;;;2.53;;
8482;SDS011;4278;42.668;23.312;2022-08-02T01:34:10;4.00;;;2.92;;
8482;SDS011;4278;42.668;23.312;2022-08-02T01:36:40;3.00;;;2.65;;
8482;SDS011;4278;42.668;23.312;2022-08-02T01:39:09;3.05;;;2.72;;
8482;SDS011;4278;42.668;23.312;2022-08-02T01:41:38;2.70;;;2.50;;
8482;SDS011;4278;42.668;23.312;2022-08-02T01:44:06;3.70;;;3.07;;
8482;SDS011;4278;42.668;23.312;2022-08-02T01:46:35;4.67;;;2.90;;
8482;SDS011;4278;42.668;23.312;2022-08-02T01:49:04;3.80;;;2.95;;
8482;SDS011;4278;42.668;23.312;2022-08-02T01:51:32;4.57;;;3.03;;
8482;SDS011;4278;42.668;23.312;2022-08-02T01:54:17;4.27;;;3.73;;
8482;SDS011;4278;42.668;23.312;2022-08-02T01:56:44;3.50;;;2.90;;
8482;SDS011;4278;42.668;23.312;2022-08-02T01:59:17;3.60;;;3.10;;
8482;SDS011;4278;42.668;23.312;2022-08-02T02:01:48;6.97;;;3.27;;
8482;SDS011;4278;42.668;23.312;2022-08-02T02:04:16;5.97;;;3.30;;
8482;SDS011;4278;42.668;23.312;2022-08-02T02:06:44;5.07;;;3.30;;
8482;SDS011;4278;42.668;23.312;2022-08-02T02:09:11;5.50;;;3.10;;
8482;SDS011;4278;42.668;23.312;2022-08-02T02:11:39;7.60;;;3.20;;
8482;SDS011;4278;42.668;23.312;2022-08-02T02:14:07;5.80;;;3.47;;
8482;SDS011;4278;42.668;23.312;2022-08-02T02:16:34;3.30;;;3.00;;
8482;SDS011;4278;42.668;23.312;2022-08-02T02:19:03;4.90;;;3.20;;
8482;SDS011;4278;42.668;23.312;2022-08-02T02:21:31;6.00;;;3.20;;
8482;SDS011;4278;42.668;23.312;2022-08-02T02:23:57;3.60;;;3.10;;
8482;SDS011;4278;42.668;23.312;2022-08-02T02:26:24;5.70;;;3.37;;
8482;SDS011;4278;42.668;23.312;2022-08-02T02:28:51;4.40;;;3.30;;
8482;SDS011;4278;42.668;23.312;2022-08-02T02:31:18;5.77;;;3.30;;
8482;SDS011;4278;42.668;23.312;2022-08-02T02:33:47;4.13;;;2.93;;
8482;SDS011;4278;42.668;23.312;2022-08-02T02:36:17;4.30;;;3.30;;
8482;SDS011;4278;42.668;23.312;2022-08-02T02:38:44;3.80;;;3.23;;
8482;SDS011;4278;42.668;23.312;2022-08-02T02:41:11;6.37;;;3.47;;
8482;SDS011;4278;42.668;23.312;2022-08-02T02:43:38;3.17;;;2.87;;
8482;SDS011;4278;42.668;23.312;2022-08-02T02:46:05;3.43;;;3.07;;
8482;SDS011;4278;42.668;23.312;2022-08-02T02:48:32;5.13;;;3.40;;
8482;SDS011;4278;42.668;23.312;2022-08-02T02:50:59;5.37;;;3.07;;
8482;SDS011;4278;42.668;23.312;2022-08-02T02:53:30;4.37;;;2.80;;
8482;SDS011;4278;42.668;23.312;2022-08-02T02:55:57;6.37;;;3.00;;
8482;SDS011;4278;42.668;23.312;2022-08-02T02:58:24;5.33;;;3.07;;
8482;SDS011;4278;42.668;23.312;2022-08-02T03:00:50;2.80;;;2.60;;
8482;SDS011;4278;42.668;23.312;2022-08-02T03:03:35;3.00;;;2.70;;
8482;SDS011;4278;42.668;23.312;2022-08-02T03:06:02;2.73;;;2.50;;
8482;SDS011;4278;42.668;23.312;2022-08-02T03:08:30;6.13;;;3.27;;
8482;SDS011;4278;42.668;23.312;2022-08-02T03:10:57;3.13;;;2.73;;
8482;SDS011;4278;42.668;23.312;2022-08-02T03:13:23;7.00;;;2.97;;
8482;SDS011;4278;42.668;23.312;2022-08-02T03:15:51;4.23;;;3.27;;
8482;SDS011;4278;42.668;23.312;2022-08-02T03:18:31;3.17;;;2.83;;
8482;SDS011;4278;42.668;23.312;2022-08-02T03:20:59;4.10;;;2.77;;
8482;SDS011;4278;42.668;23.312;2022-08-02T03:23:25;3.43;;;2.80;;
8482;SDS011;4278;42.668;23.312;2022-08-02T03:25:53;5.20;;;2.70;;
8482;SDS011;4278;42.668;23.312;2022-08-02T03:28:20;2.97;;;2.67;;
8482;SDS011;4278;42.668;23.312;2022-08-02T03:30:47;7.13;;;3.40;;
8482;SDS011;4278;42.668;23.312;2022-08-02T03:33:13;3.17;;;2.83;;
8482;SDS011;4278;42.668;23.312;2022-08-02T03:35:40;3.00;;;2.57;;
8482;SDS011;4278;42.668;23.312;2022-08-02T03:38:08;4.33;;;3.37;;
8482;SDS011;4278;42.668;23.312;2022-08-02T03:40:35;5.00;;;3.10;;
8482;SDS011;4278;42.668;23.312;2022-08-02T03:43:04;6.07;;;3.07;;
8482;SDS011;4278;42.668;23.312;2022-08-02T03:45:30;5.60;;;3.30;;
8482;SDS011;4278;42.668;23.312;2022-08-02T03:47:58;5.20;;;3.13;;
8482;SDS011;4278;42.668;23.312;2022-08-02T03:50:25;4.17;;;3.77;;
8482;SDS011;4278;42.668;23.312;2022-08-02T03:52:51;4.47;;;3.37;;
8482;SDS011;4278;42.668;23.312;2022-08-02T03:55:18;6.17;;;3.23;;
8482;SDS011;4278;42.668;23.312;2022-08-02T03:57:45;3.80;;;3.03;;
8482;SDS011;4278;42.668;23.312;2022-08-02T04:00:17;4.87;;;3.40;;
8482;SDS011;4278;42.668;23.312;2022-08-02T04:02:44;6.37;;;3.27;;
8482;SDS011;4278;42.668;23.312;2022-08-02T04:05:10;4.40;;;3.20;;
8482;SDS011;4278;42.668;23.312;2022-08-02T04:07:37;7.37;;;4.37;;
8482;SDS011;4278;42.668;23.312;2022-08-02T04:10:04;5.67;;;3.53;;
8482;SDS011;4278;42.668;23.312;2022-08-02T04:12:31;5.93;;;3.30;;
8482;SDS011;4278;42.668;23.312;2022-08-02T04:14:58;5.20;;;3.90;;
8482;SDS011;4278;42.668;23.312;2022-08-02T04:17:26;7.93;;;3.70;;
8482;SDS011;4278;42.668;23.312;2022-08-02T04:19:54;4.77;;;3.63;;
8482;SDS011;4278;42.668;23.312;2022-08-02T04:22:22;4.33;;;3.30;;
8482;SDS011;4278;42.668;23.312;2022-08-02T04:24:50;5.53;;;3.80;;
8482;SDS011;4278;42.668;23.312;2022-08-02T04:27:17;5.27;;;3.70;;
8482;SDS011;4278;42.668;23.312;2022-08-02T04:29:45;5.93;;;4.07;;
8482;SDS011;4278;42.668;23.312;2022-08-02T04:32:12;7.27;;;3.83;;
8482;SDS011;4278;42.668;23.312;2022-08-02T04:34:40;6.77;;;4.47;;
8482;SDS011;4278;42.668;23.312;2022-08-02T04:37:06;13.27;;;4.20;;
8482;SDS011;4278;42.668;23.312;2022-08-02T04:39:33;11.25;;;6.35;;
8482;SDS011;4278;42.668;23.312;2022-08-02T04:41:59;8.20;;;4.57;;
8482;SDS011;4278;42.668;23.312;2022-08-02T04:44:26;4.65;;;3.40;;
8482;SDS011;4278;42.668;23.312;2022-08-02T04:46:53;10.65;;;4.70;;
8482;SDS011;4278;42.668;23.312;2022-08-02T04:49:20;6.55;;;4.20;;
8482;SDS011;4278;42.668;23.312;2022-08-02T04:51:48;7.63;;;4.03;;
8482;SDS011;4278;42.668;23.312;2022-08-02T04:54:14;7.47;;;4.70;;
8482;SDS011;4278;42.668;23.312;2022-08-02T04:56:41;5.18;;;4.30;;
8482;SDS011;4278;42.668;23.312;2022-08-02T04:59:08;7.45;;;4.22;;
8482;SDS011;4278;42.668;23.312;2022-08-02T05:01:34;6.30;;;3.67;;
8482;SDS011;4278;42.668;23.312;2022-08-02T05:04:03;6.93;;;3.60;;
8482;SDS011;4278;42.668;23.312;2022-08-02T05:06:30;5.65;;;4.20;;
8482;SDS011;4278;42.668;23.312;2022-08-02T05:08:58;8.38;;;4.28;;
8482;SDS011;4278;42.668;23.312;2022-08-02T05:11:25;7.30;;;4.15;;
8482;SDS011;4278;42.668;23.312;2022-08-02T05:13:51;6.22;;;3.72;;
8482;SDS011;4278;42.668;23.312;2022-08-02T05:16:18;6.78;;;3.65;;
8482;SDS011;4278;42.668;23.312;2022-08-02T05:18:44;7.07;;;3.92;;
8482;SDS011;4278;42.668;23.312;2022-08-02T05:21:11;9.15;;;3.83;;
8482;SDS011;4278;42.668;23.312;2022-08-02T05:23:38;7.28;;;3.58;;
8482;SDS011;4278;42.668;23.312;2022-08-02T05:26:06;6.05;;;3.88;;
8482;SDS011;4278;42.668;23.312;2022-08-02T05:28:32;9.52;;;4.35;;
8482;SDS011;4278;42.668;23.312;2022-08-02T05:30:59;8.77;;;4.50;;
8482;SDS011;4278;42.668;23.312;2022-08-02T05:33:26;7.50;;;4.05;;
8482;SDS011;4278;42.668;23.312;2022-08-02T05:35:53;5.13;;;3.78;;
8482;SDS011;4278;42.668;23.312;2022-08-02T05:38:20;6.05;;;3.15;;
8482;SDS011;4278;42.668;23.312;2022-08-02T05:40:47;5.03;;;3.22;;
8482;SDS011;4278;42.668;23.312;2022-08-02T05:43:15;6.53;;;3.33;;
8482;SDS011;4278;42.668;23.312;2022-08-02T05:45:42;4.63;;;3.00;;
8482;SDS011;4278;42.668;23.312;2022-08-02T05:48:08;4.43;;;3.33;;
8482;SDS011;4278;42.668;23.312;2022-08-02T05:50:36;5.18;;;2.97;;
8482;SDS011;4278;42.668;23.312;2022-08-02T05:53:04;5.45;;;2.92;;
8482;SDS011;4278;42.668;23.312;2022-08-02T05:55:34;3.80;;;2.53;;
8482;SDS011;4278;42.668;23.312;2022-08-02T05:58:02;2.88;;;2.40;;
8482;SDS011;4278;42.668;23.312;2022-08-02T06:00:31;4.15;;;2.80;;
8482;SDS011;4278;42.668;23.312;2022-08-02T06:05:47;3.63;;;2.13;;
8482;SDS011;4278;42.668;23.312;2022-08-02T06:08:15;2.30;;;2.10;;
8482;SDS011;4278;42.668;23.312;2022-08-02T06:10:42;3.33;;;2.88;;
8482;SDS011;4278;42.668;23.312;2022-08-02T06:13:09;2.95;;;2.10;;
8482;SDS011;4278;42.668;23.312;2022-08-02T06:15:38;5.78;;;2.50;;
8482;SDS011;4278;42.668;23.312;2022-08-02T06:18:05;4.32;;;2.50;;
8482;SDS011;4278;42.668;23.312;2022-08-02T06:20:32;4.43;;;2.30;;
8482;SDS011;4278;42.668;23.312;2022-08-02T06:23:01;3.97;;;2.50;;
8482;SDS011;4278;42.668;23.312;2022-08-02T06:25:28;3.92;;;2.58;;
8482;SDS011;4278;42.668;23.312;2022-08-02T06:27:55;2.65;;;2.15;;
8482;SDS011;4278;42.668;23.312;2022-08-02T06:30:23;3.50;;;2.60;;
8482;SDS011;4278;42.668;23.312;2022-08-02T06:32:51;4.80;;;2.67;;
8482;SDS011;4278;42.668;23.312;2022-08-02T06:35:18;2.80;;;2.20;;
8482;SDS011;4278;42.668;23.312;2022-08-02T06:37:46;2.95;;;2.38;;
8482;SDS011;4278;42.668;23.312;2022-08-02T06:40:14;2.47;;;2.00;;
8482;SDS011;4278;42.668;23.312;2022-08-02T06:42:47;3.55;;;2.45;;
8482;SDS011;4278;42.668;23.312;2022-08-02T06:45:15;5.18;;;2.50;;
8482;SDS011;4278;42.668;23.312;2022-08-02T06:47:42;2.35;;;2.08;;
8482;SDS011;4278;42.668;23.312;2022-08-02T06:50:10;3.92;;;2.25;;
8482;SDS011;4278;42.668;23.312;2022-08-02T06:52:37;2.33;;;2.00;;
8482;SDS011;4278;42.668;23.312;2022-08-02T06:55:04;2.30;;;2.10;;
8482;SDS011;4278;42.668;23.312;2022-08-02T06:57:31;4.60;;;2.42;;
8482;SDS011;4278;42.668;23.312;2022-08-02T06:59:57;2.85;;;2.10;;
8482;SDS011;4278;42.668;23.312;2022-08-02T07:02:25;2.47;;;1.90;;
8482;SDS011;4278;42.668;23.312;2022-08-02T07:04:52;4.15;;;2.20;;
8482;SDS011;4278;42.668;23.312;2022-08-02T07:07:21;5.13;;;2.10;;
8482;SDS011;4278;42.668;23.312;2022-08-02T07:09:47;3.40;;;1.83;;
8482;SDS011;4278;42.668;23.312;2022-08-02T07:12:15;2.55;;;2.15;;
8482;SDS011;4278;42.668;23.312;2022-08-02T07:14:42;6.35;;;2.33;;
8482;SDS011;4278;42.668;23.312;2022-08-02T07:17:09;5.35;;;2.35;;
8482;SDS011;4278;42.668;23.312;2022-08-02T07:19:36;2.67;;;2.00;;
8482;SDS011;4278;42.668;23.312;2022-08-02T07:22:03;1.80;;;1.70;;
8482;SDS011;4278;42.668;23.312;2022-08-02T07:24:31;2.25;;;1.77;;
8482;SDS011;4278;42.668;23.312;2022-08-02T07:26:58;4.32;;;3.22;;
8482;SDS011;4278;42.668;23.312;2022-08-02T07:29:24;2.85;;;2.55;;
8482;SDS011;4278;42.668;23.312;2022-08-02T07:31:51;3.30;;;2.30;;
8482;SDS011;4278;42.668;23.312;2022-08-02T07:34:18;3.10;;;2.30;;
8482;SDS011;4278;42.668;23.312;2022-08-02T07:36:44;3.38;;;2.58;;
8482;SDS011;4278;42.668;23.312;2022-08-02T07:39:11;2.17;;;1.98;;
8482;SDS011;4278;42.668;23.312;2022-08-02T07:41:39;3.65;;;2.30;;
8482;SDS011;4278;42.668;23.312;2022-08-02T07:44:06;3.00;;;2.00;;
8482;SDS011;4278;42.668;23.312;2022-08-02T07:46:32;4.45;;;1.90;;
8482;SDS011;4278;42.668;23.312;2022-08-02T07:48:59;2.88;;;1.95;;
8482;SDS011;4278;42.668;23.312;2022-08-02T07:51:26;3.72;;;1.85;;
8482;SDS011;4278;42.668;23.312;2022-08-02T07:53:52;2.83;;;2.00;;
8482;SDS011;4278;42.668;23.312;2022-08-02T07:56:19;2.53;;;1.90;;
8482;SDS011;4278;42.668;23.312;2022-08-02T07:58:47;3.28;;;1.98;;
8482;SDS011;4278;42.668;23.312;2022-08-02T08:01:13;2.28;;;1.85;;
8482;SDS011;4278;42.668;23.312;2022-08-02T08:03:41;3.63;;;1.85;;
8482;SDS011;4278;42.668;23.312;2022-08-02T08:06:07;2.45;;;1.80;;
8482;SDS011;4278;42.668;23.312;2022-08-02T08:08:34;1.80;;;1.50;;
8482;SDS011;4278;42.668;23.312;2022-08-02T08:11:00;1.95;;;1.60;;
8482;SDS011;4278;42.668;23.312;2022-08-02T08:13:27;2.45;;;1.38;;
8482;SDS011;4278;42.668;23.312;2022-08-02T08:15:55;1.85;;;1.40;;
8482;SDS011;4278;42.668;23.312;2022-08-02T08:18:22;1.83;;;1.70;;
8482;SDS011;4278;42.668;23.312;2022-08-02T08:20:48;2.95;;;1.60;;
8482;SDS011;4278;42.668;23.312;2022-08-02T08:23:15;2.03;;;1.35;;
8482;SDS011;4278;42.668;23.312;2022-08-02T08:25:42;4.28;;;2.00;;
8482;SDS011;4278;42.668;23.312;2022-08-02T08:28:09;3.88;;;2.15;;
8482;SDS011;4278;42.668;23.312;2022-08-02T08:30:35;3.10;;;1.92;;
8482;SDS011;4278;42.668;23.312;2022-08-02T08:33:03;2.78;;;1.60;;
8482;SDS011;4278;42.668;23.312;2022-08-02T08:35:30;2.25;;;1.50;;
8482;SDS011;4278;42.668;23.312;2022-08-02T08:37:57;4.25;;;1.90;;
8482;SDS011;4278;42.668;23.312;2022-08-02T08:40:24;2.55;;;1.80;;
8482;SDS011;4278;42.668;23.312;2022-08-02T08:42:50;2.63;;;1.80;;
8482;SDS011;4278;42.668;23.312;2022-08-02T08:45:17;4.35;;;1.95;;
8482;SDS011;4278;42.668;23.312;2022-08-02T08:47:43;2.60;;;1.60;;
8482;SDS011;4278;42.668;23.312;2022-08-02T08:50:15;2.45;;;1.63;;
8482;SDS011;4278;42.668;23.312;2022-08-02T08:52:45;5.30;;;2.28;;
8482;SDS011;4278;42.668;23.312;2022-08-02T08:55:13;1.60;;;1.50;;
8482;SDS011;4278;42.668;23.312;2022-08-02T08:57:41;1.92;;;1.50;;
8482;SDS011;4278;42.668;23.312;2022-08-02T09:00:08;1.48;;;1.38;;
8482;SDS011;4278;42.668;23.312;2022-08-02T09:02:36;2.58;;;1.52;;
8482;SDS011;4278;42.668;23.312;2022-08-02T09:05:06;1.80;;;1.30;;
8482;SDS011;4278;42.668;23.312;2022-08-02T09:07:36;1.88;;;1.55;;
8482;SDS011;4278;42.668;23.312;2022-08-02T09:10:10;3.33;;;1.52;;
8482;SDS011;4278;42.668;23.312;2022-08-02T09:13:04;3.50;;;1.40;;
8482;SDS011;4278;42.668;23.312;2022-08-02T09:15:31;1.85;;;1.42;;
8482;SDS011;4278;42.668;23.312;2022-08-02T09:17:57;2.17;;;1.60;;
8482;SDS011;4278;42.668;23.312;2022-08-02T09:20:24;3.38;;;1.52;;
8482;SDS011;4278;42.668;23.312;2022-08-02T09:22:57;2.25;;;1.65;;
8482;SDS011;4278;42.668;23.312;2022-08-02T09:25:30;1.40;;;1.30;;
8482;SDS011;4278;42.668;23.312;2022-08-02T09:27:57;2.97;;;1.30;;
8482;SDS011;4278;42.668;23.312;2022-08-02T09:30:24;1.45;;;1.30;;
8482;SDS011;4278;42.668;23.312;2022-08-02T09:32:51;1.20;;;1.10;;
8482;SDS011;4278;42.668;23.312;2022-08-02T09:38:10;1.40;;;1.30;;
8482;SDS011;4278;42.668;23.312;2022-08-02T09:40:37;1.50;;;1.27;;
8482;SDS011;4278;42.668;23.312;2022-08-02T09:43:04;1.00;;;1.00;;
8482;SDS011;4278;42.668;23.312;2022-08-02T09:45:30;2.33;;;1.50;;
8482;SDS011;4278;42.668;23.312;2022-08-02T09:47:59;4.78;;;2.17;;
8482;SDS011;4278;42.668;23.312;2022-08-02T09:50:26;2.47;;;1.60;;
8482;SDS011;4278;42.668;23.312;2022-08-02T09:52:53;2.85;;;2.17;;
8482;SDS011;4278;42.668;23.312;2022-08-02T09:55:22;2.08;;;1.67;;
8482;SDS011;4278;42.668;23.312;2022-08-02T09:57:49;2.25;;;1.50;;
8482;SDS011;4278;42.668;23.312;2022-08-02T10:00:16;3.45;;;1.77;;
8482;SDS011;4278;42.668;23.312;2022-08-02T10:05:28;2.28;;;1.40;;
8482;SDS011;4278;42.668;23.312;2022-08-02T10:07:55;2.28;;;1.73;;
8482;SDS011;4278;42.668;23.312;2022-08-02T10:10:23;1.90;;;1.70;;
8482;SDS011;4278;42.668;23.312;2022-08-02T10:12:50;2.38;;;1.30;;
8482;SDS011;4278;42.668;23.312;2022-08-02T10:15:16;1.83;;;1.35;;
8482;SDS011;4278;42.668;23.312;2022-08-02T10:17:43;4.70;;;1.65;;
8482;SDS011;4278;42.668;23.312;2022-08-02T10:20:10;1.48;;;1.38;;
8482;SDS011;4278;42.668;23.312;2022-08-02T10:22:37;1.20;;;1.10;;
8482;SDS011;4278;42.668;23.312;2022-08-02T10:25:04;2.90;;;1.13;;
8482;SDS011;4278;42.668;23.312;2022-08-02T10:27:33;1.60;;;1.30;;
8482;SDS011;4278;42.668;23.312;2022-08-02T10:30:01;3.40;;;1.08;;
8482;SDS011;4278;42.668;23.312;2022-08-02T10:32:29;1.73;;;1.30;;
8482;SDS011;4278;42.668;23.312;2022-08-02T10:34:59;1.27;;;1.17;;
8482;SDS011;4278;42.668;23.312;2022-08-02T10:37:27;1.55;;;1.40;;
8482;SDS011;4278;42.668;23.312;2022-08-02T10:39:54;1.85;;;1.40;;
8482;SDS011;4278;42.668;23.312;2022-08-02T10:45:11;2.47;;;1.90;;
8482;SDS011;4278;42.668;23.312;2022-08-02T10:47:39;1.90;;;1.70;;
8482;SDS011;4278;42.668;23.312;2022-08-02T10:50:06;4.95;;;2.63;;
8482;SDS011;4278;42.668;23.312;2022-08-02T10:52:35;1.85;;;1.40;;
8482;SDS011;4278;42.668;23.312;2022-08-02T10:55:08;2.40;;;1.45;;
8482;SDS011;4278;42.668;23.312;2022-08-02T10:57:35;2.88;;;1.35;;
8482;SDS011;4278;42.668;23.312;2022-08-02T11:00:09;1.38;;;1.20;;
8482;SDS011;4278;42.668;23.312;2022-08-02T11:02:39;2.33;;;1.40;;
8482;SDS011;4278;42.668;23.312;2022-08-02T11:05:12;1.40;;;1.23;;
8482;SDS011;4278;42.668;23.312;2022-08-02T11:07:40;5.70;;;1.55;;
8482;SDS011;4278;42.668;23.312;2022-08-02T11:10:27;1.40;;;1.13;;
8482;SDS011;4278;42.668;23.312;2022-08-02T11:12:58;2.50;;;1.50;;
8482;SDS011;4278;42.668;23.312;2022-08-02T11:15:25;2.97;;;1.63;;
8482;SDS011;4278;42.668;23.312;2022-08-02T11:17:54;2.42;;;1.60;;
8482;SDS011;4278;42.668;23.312;2022-08-02T11:20:21;2.22;;;1.92;;
8482;SDS011;4278;42.668;23.312;2022-08-02T11:22:48;1.58;;;1.48;;
8482;SDS011;4278;42.668;23.312;2022-08-02T11:25:29;1.75;;;1.52;;
8482;SDS011;4278;42.668;23.312;2022-08-02T11:27:57;1.50;;;1.40;;
8482;SDS011;4278;42.668;23.312;2022-08-02T11:30:24;2.08;;;1.88;;
8482;SDS011;4278;42.668;23.312;2022-08-02T11:32:55;1.88;;;1.55;;
8482;SDS011;4278;42.668;23.312;2022-08-02T11:35:22;2.47;;;2.13;;
8482;SDS011;4278;42.668;23.312;2022-08-02T11:37:49;2.10;;;1.58;;
8482;SDS011;4278;42.668;23.312;2022-08-02T11:40:16;1.65;;;1.50;;
8482;SDS011;4278;42.668;23.312;2022-08-02T11:42:44;1.90;;;1.73;;
8482;SDS011;4278;42.668;23.312;2022-08-02T11:45:13;1.25;;;1.15;;
8482;SDS011;4278;42.668;23.312;2022-08-02T11:47:43;1.48;;;1.10;;
8482;SDS011;4278;42.668;23.312;2022-08-02T11:50:12;2.33;;;1.45;;
8482;SDS011;4278;42.668;23.312;2022-08-02T11:52:38;1.50;;;1.40;;
8482;SDS011;4278;42.668;23.312;2022-08-02T11:55:05;2.03;;;1.40;;
8482;SDS011;4278;42.668;23.312;2022-08-02T11:57:33;1.17;;;1.08;;
8482;SDS011;4278;42.668;23.312;2022-08-02T12:00:00;1.98;;;1.20;;
8482;SDS011;4278;42.668;23.312;2022-08-02T12:02:28;2.05;;;1.55;;
8482;SDS011;4278;42.668;23.312;2022-08-02T12:04:56;1.23;;;1.10;;
8482;SDS011;4278;42.668;23.312;2022-08-02T12:07:29;1.73;;;1.00;;
8482;SDS011;4278;42.668;23.312;2022-08-02T12:09:57;1.85;;;1.40;;
8482;SDS011;4278;42.668;23.312;2022-08-02T12:12:24;1.52;;;1.27;;
8482;SDS011;4278;42.668;23.312;2022-08-02T12:14:51;3.83;;;2.17;;
8482;SDS011;4278;42.668;23.312;2022-08-02T12:17:21;3.72;;;1.92;;
8482;SDS011;4278;42.668;23.312;2022-08-02T12:20:05;2.20;;;1.70;;
8482;SDS011;4278;42.668;23.312;2022-08-02T12:22:33;1.10;;;1.00;;
8482;SDS011;4278;42.668;23.312;2022-08-02T12:25:13;2.55;;;1.67;;
8482;SDS011;4278;42.668;23.312;2022-08-02T12:27:43;1.33;;;1.20;;
8482;SDS011;4278;42.668;23.312;2022-08-02T12:30:11;2.63;;;1.73;;
8482;SDS011;4278;42.668;23.312;2022-08-02T12:32:39;2.03;;;1.38;;
8482;SDS011;4278;42.668;23.312;2022-08-02T12:35:07;2.03;;;1.35;;
8482;SDS011;4278;42.668;23.312;2022-08-02T12:37:37;1.50;;;1.10;;
8482;SDS011;4278;42.668;23.312;2022-08-02T12:40:16;1.73;;;1.30;;
8482;SDS011;4278;42.668;23.312;2022-08-02T12:42:46;2.08;;;1.30;;
8482;SDS011;4278;42.668;23.312;2022-08-02T12:45:13;0.98;;;0.98;;
8482;SDS011;4278;42.668;23.312;2022-08-02T12:47:43;1.17;;;1.08;;
8482;SDS011;4278;42.668;23.312;2022-08-02T12:50:10;1.33;;;1.10;;
8482;SDS011;4278;42.668;23.312;2022-08-02T12:52:38;2.30;;;1.45;;
8482;SDS011;4278;42.668;23.312;2022-08-02T12:55:13;3.17;;;1.10;;
8482;SDS011;4278;42.668;23.312;2022-08-02T12:57:49;1.10;;;1.00;;
8482;SDS011;4278;42.668;23.312;2022-08-02T13:00:21;1.73;;;1.40;;
8482;SDS011;4278;42.668;23.312;2022-08-02T13:02:48;4.88;;;1.77;;
8482;SDS011;4278;42.668;23.312;2022-08-02T13:05:15;1.77;;;1.52;;
8482;SDS011;4278;42.668;23.312;2022-08-02T13:07:43;3.38;;;1.58;;
8482;SDS011;4278;42.668;23.312;2022-08-02T13:10:10;2.45;;;1.60;;
8482;SDS011;4278;42.668;23.312;2022-08-02T13:12:37;1.38;;;1.15;;
8482;SDS011;4278;42.668;23.312;2022-08-02T13:15:04;1.52;;;1.42;;
8482;SDS011;4278;42.668;23.312;2022-08-02T13:17:31;1.80;;;1.17;;
8482;SDS011;4278;42.668;23.312;2022-08-02T13:19:58;0.80;;;0.80;;
8482;SDS011;4278;42.668;23.312;2022-08-02T13:22:25;2.05;;;1.40;;
8482;SDS011;4278;42.668;23.312;2022-08-02T13:24:53;1.10;;;1.00;;
8482;SDS011;4278;42.668;23.312;2022-08-02T13:27:20;1.33;;;1.15;;
8482;SDS011;4278;42.668;23.312;2022-08-02T13:29:46;4.80;;;3.22;;
8482;SDS011;4278;42.668;23.312;2022-08-02T13:32:13;3.80;;;2.20;;
8482;SDS011;4278;42.668;23.312;2022-08-02T13:34:40;1.48;;;1.30;;
8482;SDS011;4278;42.668;23.312;2022-08-02T13:37:07;1.20;;;1.10;;
8482;SDS011;4278;42.668;23.312;2022-08-02T13:39:33;1.45;;;1.10;;
8482;SDS011;4278;42.668;23.312;2022-08-02T13:42:01;2.53;;;1.70;;
8482;SDS011;4278;42.668;23.312;2022-08-02T13:44:28;3.83;;;2.10;;
8482;SDS011;4278;42.668;23.312;2022-08-02T13:46:54;1.90;;;1.70;;
8482;SDS011;4278;42.668;23.312;2022-08-02T13:49:21;2.53;;;1.60;;
8482;SDS011;4278;42.668;23.312;2022-08-02T13:51:48;1.88;;;1.25;;
8482;SDS011;4278;42.668;23.312;2022-08-02T13:54:15;3.65;;;2.47;;
8482;SDS011;4278;42.668;23.312;2022-08-02T13:56:42;1.55;;;1.35;;
8482;SDS011;4278;42.668;23.312;2022-08-02T13:59:10;2.28;;;1.98;;
8482;SDS011;4278;42.668;23.312;2022-08-02T14:01:37;2.83;;;1.52;;
8482;SDS011;4278;42.668;23.312;2022-08-02T14:04:04;1.40;;;1.30;;
8482;SDS011;4278;42.668;23.312;2022-08-02T14:06:30;2.10;;;1.23;;
8482;SDS011;4278;42.668;23.312;2022-08-02T14:08:57;2.35;;;1.70;;
8482;SDS011;4278;42.668;23.312;2022-08-02T14:11:24;1.48;;;1.38;;
8482;SDS011;4278;42.668;23.312;2022-08-02T14:13:51;1.70;;;1.50;;
8482;SDS011;4278;42.668;23.312;2022-08-02T14:16:19;2.03;;;1.70;;
8482;SDS011;4278;42.668;23.312;2022-08-02T14:18:45;2.10;;;1.67;;
8482;SDS011;4278;42.668;23.312;2022-08-02T14:21:12;1.40;;;1.10;;
8482;SDS011;4278;42.668;23.312;2022-08-02T14:23:38;1.77;;;1.10;;
8482;SDS011;4278;42.668;23.312;2022-08-02T14:26:05;1.58;;;1.27;;
8482;SDS011;4278;42.668;23.312;2022-08-02T14:28:33;2.28;;;1.58;;
8482;SDS011;4278;42.668;23.312;2022-08-02T14:31:00;3.30;;;2.78;;
8482;SDS011;4278;42.668;23.312;2022-08-02T14:33:28;3.03;;;1.90;;
8482;SDS011;4278;42.668;23.312;2022-08-02T14:35:55;4.90;;;2.35;;
8482;SDS011;4278;42.668;23.312;2022-08-02T14:38:22;1.50;;;1.40;;
8482;SDS011;4278;42.668;23.312;2022-08-02T14:40:48;2.42;;;1.10;;
8482;SDS011;4278;42.668;23.312;2022-08-02T14:43:15;2.20;;;1.40;;
8482;SDS011;4278;42.668;23.312;2022-08-02T14:45:56;1.75;;;1.42;;
8482;SDS011;4278;42.668;23.312;2022-08-02T14:48:22;2.83;;;1.95;;
8482;SDS011;4278;42.668;23.312;2022-08-02T14:50:51;2.30;;;1.63;;
8482;SDS011;4278;42.668;23.312;2022-08-02T14:53:17;1.45;;;1.35;;
8482;SDS011;4278;42.668;23.312;2022-08-02T14:55:44;1.52;;;1.42;;
8482;SDS011;4278;42.668;23.312;2022-08-02T14:58:10;1.70;;;1.60;;
8482;SDS011;4278;42.668;23.312;2022-08-02T15:00:37;2.15;;;1.50;;
8482;SDS011;4278;42.668;23.312;2022-08-02T15:03:04;4.80;;;2.22;;
8482;SDS011;4278;42.668;23.312;2022-08-02T15:05:31;3.33;;;2.95;;
8482;SDS011;4278;42.668;23.312;2022-08-02T15:07:59;1.48;;;1.20;;
8482;SDS011;4278;42.668;23.312;2022-08-02T15:10:26;2.85;;;1.50;;
8482;SDS011;4278;42.668;23.312;2022-08-02T15:12:52;2.65;;;1.60;;
8482;SDS011;4278;42.668;23.312;2022-08-02T15:15:19;1.40;;;1.30;;